logo tempoitalia

Diretta Meteo McConnell, Stati Uniti (USA)lunedì 31 agosto ore 00:55

Mappa
Sereno 30 °C Sereno 24 Ore: T.min 26 T.max 41
Ponente Sud Km/h 24 Punto di rugiada: 16 °C Umidità: 42% Visibilità: 10 Km
Il sole sorge alle: 06:58 Il sole tramonta alle: 19:59
31 Agosto 2026 00:55 tempo osservato: Sereno Sereno 30 42 1012 vento: Nord S 24
30 Agosto 2026 23:55 tempo osservato: Sereno Sereno 31 37 1011 vento: Nord S 25.9
30 Agosto 2026 22:55 tempo osservato: Sereno Sereno 32 35 1011 vento: Nord S 20.3
30 Agosto 2026 21:55 tempo osservato: Sereno Sereno 33 36 1011 vento: Nord S 27.8
30 Agosto 2026 20:55 tempo osservato: Sereno Sereno 34 32 1010 vento: Nord S 18.5
30 Agosto 2026 19:55 tempo osservato: Sereno Sereno 36 30 1010 vento: Nord S 24
30 Agosto 2026 18:55 tempo osservato: Sereno Sereno 38 27 1009 vento: Nord S 29.6
30 Agosto 2026 17:55 tempo osservato: Sereno Sereno 40 24 1009 vento: Nord S/SO 35.2
30 Agosto 2026 16:55 tempo osservato: Sereno Sereno 40 24 1009 vento: Nord S/SO 29.6
30 Agosto 2026 15:55 tempo osservato: Sereno Sereno 41 23 1009 vento: Nord S/SO 37
30 Agosto 2026 14:55 tempo osservato: Sereno Sereno 40 26 1010 vento: Nord SO 42.6
30 Agosto 2026 13:55 tempo osservato: Sereno Sereno 40 26 1010 vento: Nord S/SO 38.8
30 Agosto 2026 12:55 tempo osservato: Sereno Sereno 38 31 1011 vento: Nord S/SO 42.6
30 Agosto 2026 11:55 tempo osservato: Sereno Sereno 36 34 1012 vento: Nord S/SO 40.7
30 Agosto 2026 10:55 tempo osservato: Sereno Sereno 34 38 1012 vento: Nord S/SO 29.6
30 Agosto 2026 09:55 tempo osservato: Sereno Sereno 32 40 1012 vento: Nord S/SO 27.8
30 Agosto 2026 08:55 tempo osservato: Sereno Sereno 29 48 1013 vento: Nord S/SO 24
30 Agosto 2026 07:55 tempo osservato: Sereno Sereno 27 50 1013 vento: Nord S 22.2
30 Agosto 2026 06:55 tempo osservato: Sereno Sereno 26 54 1012 vento: Nord S 24
30 Agosto 2026 05:55 tempo osservato: Sereno Sereno 26 54 1012 vento: Nord S 20.3
30 Agosto 2026 04:55 tempo osservato: Sereno Sereno 26 54 1012 vento: Nord S 16.7
30 Agosto 2026 03:55 tempo osservato: Sereno Sereno 28 48 1012 vento: Nord S 16.7
30 Agosto 2026 02:55 tempo osservato: Sereno Sereno 28 48 1012 vento: Nord S/SO 16.7
30 Agosto 2026 01:55 tempo osservato: Sereno Sereno 29 45 1012 vento: Nord S 24